Key Center, Washington
Current Conditions -  °F | °C
As of 8:53 AM on Monday 22 Dec 2014 (Local Time) from KTIW Reporting Station
Clear Clear  
Wind Chill: 43°   Ceiling: Unl
Heat Index: 45°   Visibility: 10mi
Dew Point: 42°   Wind: 5mph
Humidity: 90%   Direction: 140°SE
Pressure: 30.34"   Gusts: NA
Location:  47.2986°N, 122.616°W
Report Text: KTIW 221653Z 14004KT 10SM CLR 07/06 A3034 RMK AO2 SLP275 T00720056
Loading
Personal Weather Stations






























Interactive Weather Map New forecast layout! Learn more

10-Day Weather Forecast

Advertisements
Track Severe Weather on mobile